D/T METAR WX W/DIR W/SPE G/SPE TEMP DEWP
20/07/19 18:50 EGFF 201750Z AUTO 27014KT 9999 FEW030 18/12 Q1013 W (270°) 16.1mph 18°C 12°C
20/07/19 18:20 EGFF 201720Z AUTO 26014KT 9999 NCD 18/13 Q1013 W (260°) 16.1mph 18°C 13°C
20/07/19 17:50 EGFF 201650Z AUTO 27013KT 9999 FEW040 19/12 Q1012 W (270°) 15.0mph 19°C 12°C
20/07/19 17:20 EGFF 201620Z AUTO 27014KT 9999 SCT019 SCT039 19/13 Q1012 W (270°) 16.1mph 19°C 13°C
20/07/19 16:50 EGFF 201550Z AUTO 26016KT 9999 FEW019 19/13 Q1012 W (260°) 18.4mph 19°C 13°C
20/07/19 16:20 EGFF 201520Z AUTO 27016KT 9999 BKN019 19/13 Q1011 W (270°) 18.4mph 19°C 13°C
20/07/19 15:50 EGFF 201450Z AUTO 27017KT 9999 BKN018 19/13 Q1011 W (270°) 19.6mph 19°C 13°C
20/07/19 15:20 EGFF 201420Z AUTO 27014KT 9999 BKN019 19/13 Q1011 W (270°) 16.1mph 19°C 13°C
20/07/19 14:50 EGFF 201350Z 27016KT 9999 SCT020 18/13 Q1010 W (270°) 18.4mph 18°C 13°C
20/07/19 14:20 EGFF 201320Z 27016KT 9999 SCT020 18/14 Q1010 W (270°) 18.4mph 18°C 14°C
20/07/19 13:50 EGFF 201250Z 28016G26KT 9999 SCT020 19/13 Q1009 W (280°) 18.4mph 29.9mph 19°C 13°C
20/07/19 13:20 EGFF 201220Z 27017KT 9999 FEW018 BKN022 18/14 Q1009 W (270°) 19.6mph 18°C 14°C
20/07/19 12:50 EGFF 201150Z 27015KT 240V310 9999 SCT016 BKN035 18/14 Q1009 W (270°) 17.3mph 18°C 14°C
20/07/19 12:20 EGFF 201120Z 28015KT 230V300 9999 SCT018 BKN034 18/14 Q1008 W (280°) 17.3mph 18°C 14°C
20/07/19 11:50 EGFF 201050Z 27014KT 9999 SCT012 BKN038 17/15 Q1008 W (270°) 16.1mph 17°C 15°C
20/07/19 11:20 EGFF 201020Z 27015KT 240V300 9999 -SHRA SCT008 BKN015 16/15 Q1007 -SHRA W (270°) 17.3mph 16°C 15°C
20/07/19 10:50 EGFF 200950Z 27015G25KT 9999 8000SE SCT010 BKN022 16/15 Q1007 W (270°) 17.3mph 28.8mph 16°C 15°C
20/07/19 10:20 EGFF 200920Z 27015KT 9999 SCT010 BKN041 18/15 Q1007 W (270°) 17.3mph 18°C 15°C
20/07/19 09:50 EGFF 200850Z 27014KT 9999 -RA SCT011 BKN022 16/15 Q1006 -RA W (270°) 16.1mph 16°C 15°C
20/07/19 09:20 EGFF 200820Z AUTO 26015KT 9999 FEW019 SCT028 OVC034 17/14 Q1006 W (260°) 17.3mph 17°C 14°C
20/07/19 08:50 EGFF 200750Z AUTO 26015KT 9999 FEW017 BKN025 OVC030 17/14 Q1006 W (260°) 17.3mph 17°C 14°C
20/07/19 08:20 EGFF 200720Z AUTO 26014KT 9999 SCT015 BKN033 17/14 Q1005 W (260°) 16.1mph 17°C 14°C
20/07/19 07:50 EGFF 200650Z AUTO 27014KT 9999 SCT017 OVC033 16/14 Q1005 W (270°) 16.1mph 16°C 14°C
20/07/19 07:20 EGFF 200620Z AUTO 27015KT 9999 SCT017 BKN023 OVC030 16/14 Q1005 W (270°) 17.3mph 16°C 14°C
20/07/19 06:50 EGFF 200550Z AUTO 27014KT 9999 BKN012 BKN031 16/15 Q1005 W (270°) 16.1mph 16°C 15°C
20/07/19 06:20 EGFF 200520Z AUTO 26013KT 9999 BKN012 OVC028 16/15 Q1004 W (260°) 15.0mph 16°C 15°C
20/07/19 05:50 EGFF 200450Z AUTO 26012KT 9999 BKN010 BKN016 BKN023 16/15 Q1004 W (260°) 13.8mph 16°C 15°C
20/07/19 05:20 EGFF 200420Z AUTO 25012KT 9999 -RA SCT006 BKN009 OVC023 16/16 Q1004 RERA REDZ -RA WSW (250°) 13.8mph 16°C 16°C
20/07/19 04:50 EGFF 200350Z AUTO 25010KT 9999 BKN016 BKN032 17/15 Q1004 WSW (250°) 11.5mph 17°C 15°C
20/07/19 04:20 EGFF 200320Z AUTO 25009KT 9999 FEW015 BKN034 16/15 Q1004 WSW (250°) 10.4mph 16°C 15°C
20/07/19 03:50 EGFF 200250Z AUTO 26007KT 9999 SCT031 SCT038 16/16 Q1004 W (260°) 8.1mph 16°C 16°C
20/07/19 03:20 EGFF 200220Z AUTO 25007KT 9999 FEW003/// SCT008/// BKN021/// //////CB 17/16 Q1004 RERA WSW (250°) 8.1mph 17°C 16°C
20/07/19 02:50 EGFF 200150Z AUTO 25008KT 1900 +RA BKN002/// BKN006/// OVC024/// //////CB 17/16 Q1004 +RA WSW (250°) 9.2mph 17°C 16°C
20/07/19 01:50 EGFF 200050Z AUTO 18006KT 3100 RA SCT017/// BKN024/// BKN036/// //////CB 17/16 Q1005 RA S (180°) 6.9mph 17°C 16°C
20/07/19 01:20 EGFF 200020Z AUTO 19007KT 9999 -RA SCT018/// BKN023/// BKN031/// //////CB 17/16 Q1005 -RA S (190°) 8.1mph 17°C 16°C
20/07/19 00:50 EGFF 192350Z AUTO 20006KT 9999 -RA BKN016/// OVC030/// //////TCU 17/16 Q1005 -RA SSW (200°) 6.9mph 17°C 16°C
20/07/19 00:20 EGFF 192320Z AUTO 20005KT 130V240 9999 BKN018 OVC032 17/16 Q1005 SSW (200°) 5.8mph 17°C 16°C
19/07/19 23:20 EGFF 192220Z AUTO 22006KT 9999 BKN018/// BKN026/// BKN030/// //////TCU 17/16 Q1006 SW (220°) 6.9mph 17°C 16°C
19/07/19 22:50 EGFF 192150Z AUTO 21007KT 9999 SCT020 BKN024 BKN032 17/16 Q1006 SSW (210°) 8.1mph 17°C 16°C
19/07/19 22:20 EGFF 192120Z AUTO 20007KT 9999 -RA BKN020 BKN026 17/16 Q1006 -RA SSW (200°) 8.1mph 17°C 16°C
19/07/19 21:50 EGFF 192050Z AUTO 20004KT 9999 -RA SCT019/// BKN024/// OVC037/// //////TCU 17/16 Q1006 RERA -RA SSW (200°) 4.6mph 17°C 16°C
19/07/19 21:20 EGFF 192020Z AUTO 21005KT 180V250 3800 RA BKN016/// BKN024/// OVC036/// //////TCU 17/16 Q1007 RA SSW (210°) 5.8mph 17°C 16°C
19/07/19 20:50 EGFF 191950Z AUTO VRB03KT 9999 -RA BKN010/// OVC019/// //////TCU 17/16 Q1007 RERA -RA N (0°) 3.5mph 17°C 16°C
19/07/19 20:20 EGFF 191920Z AUTO 20004KT 9000 -RA BKN016/// OVC046/// //////TCU 17/16 Q1007 -RA SSW (200°) 4.6mph 17°C 16°C
19/07/19 19:50 EGFF 191850Z AUTO 24006KT 9999 -RA BKN026/// BKN035/// //////TCU 17/16 Q1007 -RA WSW (240°) 6.9mph 17°C 16°C
19/07/19 19:20 EGFF 191820Z AUTO 24007KT 7000 -RA BKN029/// //////TCU 17/16 Q1007 RERA -RA WSW (240°) 8.1mph 17°C 16°C
19/07/19 18:50 EGFF 191750Z 23007KT 9999 SCT034TCU BKN048 17/16 Q1008 SW (230°) 8.1mph 17°C 16°C
19/07/19 18:20 EGFF 191720Z 26007KT 220V290 9999 FEW016 SCT046 17/16 Q1008 W (260°) 8.1mph 17°C 16°C